Time;durP1;ratioP1;P1;durP2;ratioP2;P2;SDS_P1;SDS_P2;PMS_P1;PMS_P2;Temp;Humidity;BMP_temperature;BMP_pressure;BME280_temperature;BME280_humidity;BME280_pressure;Samples;Min_cycle;Max_cycle;Signal;HPM_P1;HPM_P2
2021/04/01 00:01:32;;;;;;;8.27;5.18;;;;;;;9.25;70.05;98522.72;10626724;27;20043;-58
2021/04/01 00:06:35;;;;;;;10.27;5.30;;;;;;;9.37;69.87;98532.00;10626177;27;20051;-53
2021/04/01 00:11:37;;;;;;;10.77;5.75;;;;;;;9.45;69.86;98530.28;10626143;27;20054;-54
2021/04/01 00:16:38;;;;;;;8.50;5.15;;;;;;;9.57;69.40;98522.97;10626334;27;20062;-53
2021/04/01 00:21:41;;;;;;;10.98;4.88;;;;;;;9.63;69.20;98526.78;10625512;28;20097;-54
2021/04/01 00:26:42;;;;;;;9.57;4.63;;;;;;;9.62;69.24;98530.41;10627779;27;20055;-53
2021/04/01 00:31:44;;;;;;;9.27;5.20;;;;;;;9.61;69.20;98534.81;10628152;27;20052;-53
2021/04/01 00:36:46;;;;;;;8.32;4.50;;;;;;;9.66;69.18;98531.72;10627286;27;20043;-53
2021/04/01 00:41:48;;;;;;;9.45;4.20;;;;;;;9.62;69.19;98525.16;10628917;27;20039;-53
2021/04/01 00:46:50;;;;;;;6.97;3.78;;;;;;;9.57;69.00;98525.59;10625233;27;20051;-51
2021/04/01 00:51:52;;;;;;;7.30;4.18;;;;;;;9.64;69.22;98523.22;10625055;27;20047;-53
2021/04/01 00:56:54;;;;;;;7.65;3.90;;;;;;;9.65;69.14;98522.22;10627026;27;20122;-54
2021/04/01 01:02:01;;;;;;;7.40;4.32;;;;;;;9.62;69.31;98517.28;10634793;27;20075;-53
2021/04/01 01:07:04;;;;;;;7.68;4.68;;;;;;;9.61;69.39;98516.47;10632907;27;20111;-53
2021/04/01 01:12:06;;;;;;;9.05;4.32;;;;;;;9.62;69.32;98519.91;10632691;27;20069;-53
2021/04/01 01:17:08;;;;;;;8.38;4.40;;;;;;;9.66;69.29;98510.72;10632105;27;20441;-55
2021/04/01 01:22:10;;;;;;;7.03;3.92;;;;;;;9.74;68.76;98512.59;10632022;27;20043;-53
2021/04/01 01:27:14;;;;;;;6.80;3.85;;;;;;;9.66;69.19;98515.97;10631358;27;20138;-53
2021/04/01 01:32:16;;;;;;;13.25;4.40;;;;;;;9.56;70.04;98516.09;10631184;27;20509;-53
2021/04/01 01:37:18;;;;;;;7.80;3.78;;;;;;;9.64;69.51;98513.53;10635451;27;20142;-55
2021/04/01 01:42:20;;;;;;;8.32;4.00;;;;;;;9.71;69.09;98508.47;10631793;27;20415;-53
2021/04/01 01:47:22;;;;;;;8.23;3.55;;;;;;;9.73;69.34;98505.69;10630806;27;20072;-53
2021/04/01 01:52:23;;;;;;;7.53;3.88;;;;;;;9.72;68.93;98499.63;10630268;27;20428;-53
2021/04/01 01:57:26;;;;;;;7.68;4.45;;;;;;;9.75;69.10;98503.75;10630488;27;20069;-53
2021/04/01 02:02:27;;;;;;;8.45;4.22;;;;;;;9.77;69.19;98499.19;10630847;27;20047;-53
2021/04/01 02:07:29;;;;;;;16.02;5.10;;;;;;;9.83;69.12;98501.19;10629432;27;20055;-54
2021/04/01 02:12:32;;;;;;;13.52;5.28;;;;;;;9.94;68.82;98489.56;10629019;27;20054;-53
2021/04/01 02:17:33;;;;;;;39.50;7.80;;;;;;;9.96;68.88;98500.75;10633544;27;20051;-54
2021/04/01 02:22:35;;;;;;;11.85;5.15;;;;;;;9.98;68.50;98499.63;10630531;27;20063;-53
2021/04/01 02:27:38;;;;;;;45.55;7.88;;;;;;;10.05;68.47;98497.19;10629344;27;20058;-54
2021/04/01 02:32:39;;;;;;;11.88;5.68;;;;;;;10.04;68.38;98493.75;10632890;27;20058;-60
2021/04/01 02:37:41;;;;;;;16.25;5.18;;;;;;;10.03;68.38;98489.47;10629130;27;20083;-55
2021/04/01 02:42:43;;;;;;;14.13;5.97;;;;;;;9.91;68.80;98488.94;10629558;27;20054;-56
2021/04/01 02:47:45;;;;;;;9.23;4.95;;;;;;;9.78;69.22;98487.69;10629316;27;20047;-52
2021/04/01 02:52:47;;;;;;;10.98;4.60;;;;;;;9.69;69.08;98474.50;10629882;27;20138;-53
2021/04/01 02:57:49;;;;;;;8.73;3.95;;;;;;;9.62;69.71;98478.75;10629073;27;20047;-52
2021/04/01 03:02:54;;;;;;;8.57;4.10;;;;;;;9.61;69.31;98487.59;10597420;27;20047;-54
2021/04/01 03:07:55;;;;;;;8.73;4.50;;;;;;;9.65;69.59;98480.22;10584727;28;20130;-52
2021/04/01 03:12:58;;;;;;;9.35;4.72;;;;;;;9.74;69.24;98483.75;10600706;27;20380;-53
2021/04/01 03:17:59;;;;;;;8.98;5.03;;;;;;;9.94;68.74;98487.75;10585064;28;20051;-55
2021/04/01 03:23:01;;;;;;;12.60;5.50;;;;;;;9.97;68.42;98486.63;10583496;27;20058;-53
2021/04/01 03:28:04;;;;;;;13.77;5.57;;;;;;;9.97;68.50;98486.63;10586075;28;20059;-52
2021/04/01 03:33:05;;;;;;;9.40;5.53;;;;;;;10.10;68.05;98485.25;10584516;28;20044;-55
2021/04/01 03:38:09;;;;;;;14.70;6.60;;;;;;;10.24;67.69;98489.06;10583643;28;20062;-53
2021/04/01 03:43:11;;;;;;;12.63;5.75;;;;;;;10.33;67.23;98482.06;10589258;28;20051;-54
2021/04/01 03:48:13;;;;;;;11.83;5.83;;;;;;;10.27;67.25;98482.69;10624695;27;20091;-54
2021/04/01 03:53:15;;;;;;;13.13;5.97;;;;;;;10.28;67.56;98479.09;10590382;27;20047;-53
2021/04/01 04:03:43;;;;;;;11.00;5.97;;;;;;;10.39;67.55;98485.88;10587401;28;20058;-58
2021/04/01 04:09:01;;;;;;;14.07;6.97;;;;;;;10.44;67.71;98476.53;10609079;27;20043;-52
2021/04/01 04:14:08;;;;;;;18.05;6.93;;;;;;;10.53;67.35;98478.19;10627671;28;20047;-54
2021/04/01 04:19:10;;;;;;;11.60;6.65;;;;;;;10.65;66.81;98476.06;10625750;28;20039;-54
2021/04/01 04:24:12;;;;;;;10.77;6.10;;;;;;;10.74;66.88;98479.53;10625862;28;20089;-54
2021/04/01 04:29:15;;;;;;;10.55;5.75;;;;;;;10.79;66.79;98479.88;10633623;28;20050;-55
2021/04/01 04:34:17;;;;;;;12.88;5.78;;;;;;;10.82;66.67;98476.94;10632954;27;20035;-53
2021/04/01 04:39:18;;;;;;;10.35;5.68;;;;;;;10.72;66.78;98469.22;10635058;27;20057;-53
2021/04/01 04:44:21;;;;;;;13.80;5.82;;;;;;;10.71;66.86;98474.59;10633285;27;20134;-54
2021/04/01 04:49:22;;;;;;;9.02;4.68;;;;;;;10.79;66.88;98472.00;10634263;27;20058;-53
2021/04/01 04:54:24;;;;;;;8.98;4.97;;;;;;;10.75;67.22;98468.06;10634355;27;20471;-59
2021/04/01 04:59:29;;;;;;;9.23;4.90;;;;;;;10.73;67.49;98452.44;10635065;27;20438;-54
2021/04/01 05:04:43;;;;;;;9.60;4.75;;;;;;;10.83;67.46;98454.91;10633370;27;20483;-56
2021/04/01 05:09:45;;;;;;;18.95;5.75;;;;;;;10.95;67.49;98453.59;10632565;27;20047;-53
2021/04/01 05:14:47;;;;;;;13.98;5.57;;;;;;;11.03;67.25;98443.09;10632876;27;20043;-53
2021/04/01 05:19:53;;;;;;;8.57;4.85;;;;;;;11.05;67.63;98442.91;10632605;27;20047;-54
2021/04/01 05:24:55;;;;;;;9.98;5.13;;;;;;;11.01;68.02;98439.81;10632075;27;20146;-54
2021/04/01 05:29:58;;;;;;;9.75;5.45;;;;;;;11.13;67.65;98437.69;10631632;27;20425;-53
2021/04/01 05:35:03;;;;;;;12.80;5.97;;;;;;;11.19;68.00;98436.19;10631496;27;20043;-53
2021/04/01 05:40:07;;;;;;;10.20;5.88;;;;;;;11.41;67.79;98426.78;10631278;27;20155;-54
2021/04/01 05:45:14;;;;;;;11.38;6.07;;;;;;;11.63;67.64;98428.72;10632741;27;20461;-54
2021/04/01 05:50:29;;;;;;;11.48;5.88;;;;;;;11.86;67.72;98434.13;10638798;27;20054;-51
2021/04/01 06:01:16;;;;;;;9.75;5.60;;;;;;;11.84;67.59;98420.25;10615788;27;20051;-53
2021/04/01 06:06:23;;;;;;;12.27;5.85;;;;;;;11.86;67.71;98426.22;10630031;27;20051;-54
2021/04/01 06:11:24;;;;;;;10.20;5.30;;;;;;;11.92;67.40;98422.91;10629740;27;20053;-54
2021/04/01 06:16:28;;;;;;;10.95;5.45;;;;;;;11.93;67.84;98414.00;10628877;27;20042;-53
2021/04/01 06:21:31;;;;;;;9.18;5.18;;;;;;;11.92;67.51;98415.00;10627388;27;20542;-53
2021/04/01 06:26:34;;;;;;;9.55;4.78;;;;;;;11.78;67.76;98410.41;10630989;27;20066;-55
2021/04/01 06:31:42;;;;;;;9.32;4.97;;;;;;;11.75;67.88;98411.56;10628544;27;20480;-53
2021/04/01 06:36:54;;;;;;;10.57;5.05;;;;;;;11.73;68.05;98412.75;10633391;27;20053;-54
2021/04/01 06:42:20;;;;;;;12.40;4.95;;;;;;;11.86;67.96;98405.16;10637471;27;20046;-53
2021/04/01 06:47:24;;;;;;;9.77;4.63;;;;;;;12.14;67.75;98404.72;10628218;27;20410;-53
2021/04/01 06:52:32;;;;;;;10.25;5.00;;;;;;;12.18;67.79;98409.44;10626349;27;20039;-54
2021/04/01 06:57:48;;;;;;;9.02;4.68;;;;;;;12.53;68.17;98402.03;10624864;27;20149;-53
2021/04/01 07:02:54;;;;;;;7.47;4.35;;;;;;;12.74;67.83;98390.81;10626020;27;20050;-53
2021/04/01 07:07:57;;;;;;;8.43;4.65;;;;;;;13.02;67.76;98392.88;10626384;27;20081;-53
2021/04/01 07:13:02;;;;;;;7.70;4.65;;;;;;;13.35;67.75;98385.53;10624673;27;20035;-53
2021/04/01 07:18:15;;;;;;;6.53;3.88;;;;;;;13.94;67.65;98377.59;10625832;27;20096;-54
2021/04/01 07:45:07;;;;;;;7.15;3.70;;;;;;;14.68;66.09;98364.16;10633202;27;20035;-52
2021/04/01 07:50:15;;;;;;;6.85;4.05;;;;;;;14.92;66.10;98375.38;10625088;27;20443;-54
2021/04/01 07:55:23;;;;;;;8.00;3.92;;;;;;;14.95;65.29;98381.09;10625238;27;20055;-54
2021/04/01 08:00:29;;;;;;;6.35;3.60;;;;;;;14.47;65.01;98374.72;10623847;27;20559;-53
2021/04/01 08:05:33;;;;;;;7.07;4.00;;;;;;;14.17;65.20;98377.47;10625855;27;20087;-55
2021/04/01 08:10:39;;;;;;;7.78;4.35;;;;;;;13.94;64.93;98374.13;10632814;27;20043;-53
2021/04/01 08:15:45;;;;;;;10.10;5.53;;;;;;;13.72;64.96;98367.97;10633214;27;20356;-53
2021/04/01 08:20:53;;;;;;;7.18;4.40;;;;;;;13.46;64.90;98374.53;10645309;27;20208;-52
2021/04/01 08:26:04;;;;;;;11.85;5.40;;;;;;;13.31;64.67;98371.88;10632781;27;20111;-53
2021/04/01 08:36:28;;;;;;;7.65;4.43;;;;;;;13.54;65.35;98360.41;10632115;27;20184;-53
2021/04/01 08:41:47;;;;;;;8.77;4.60;;;;;;;13.43;65.58;98348.50;10632759;27;20059;-53
2021/04/01 08:47:05;;;;;;;8.50;4.47;;;;;;;13.40;65.71;98359.41;10632344;27;20471;-53
2021/04/01 08:52:48;;;;;;;8.38;4.38;;;;;;;14.19;66.04;98338.47;10641426;27;20047;-53
2021/04/01 08:58:01;;;;;;;7.13;4.05;;;;;;;15.06;65.62;98334.78;10630612;27;20384;-53
2021/04/01 09:03:03;;;;;;;7.97;4.40;;;;;;;15.69;64.93;98328.66;10631223;27;20039;-52
2021/04/01 09:08:07;;;;;;;9.70;5.32;;;;;;;16.00;64.99;98328.16;10630711;27;20051;-53
2021/04/01 09:13:10;;;;;;;9.10;4.13;;;;;;;16.36;63.87;98322.53;10630352;27;20090;-53
2021/04/01 09:18:21;;;;;;;8.68;4.35;;;;;;;16.44;63.27;98327.66;10630737;27;20173;-54
2021/04/01 09:23:32;;;;;;;13.40;6.65;;;;;;;16.53;63.16;98322.97;10630370;27;20487;-55
2021/04/01 09:28:37;;;;;;;8.38;3.95;;;;;;;16.64;62.86;98324.22;10636054;27;20063;-55
2021/04/01 09:33:41;;;;;;;9.63;3.80;;;;;;;16.68;62.87;98317.47;10633542;27;20042;-54
2021/04/01 09:38:45;;;;;;;9.20;3.70;;;;;;;16.37;61.54;98308.25;10632058;27;20108;-56
2021/04/01 09:43:50;;;;;;;;;;;;;;;16.32;63.34;98294.81;10629996;27;20039;-53
2021/04/01 09:49:00;;;;;;;7.22;3.75;;;;;;;16.37;61.92;98294.19;10630618;27;19927;-55
2021/04/01 09:54:03;;;;;;;9.07;4.72;;;;;;;16.25;61.28;98297.41;10629275;27;20046;-54
2021/04/01 09:59:05;;;;;;;9.45;4.78;;;;;;;16.11;61.74;98278.03;10629834;27;20490;-53
2021/04/01 10:04:11;;;;;;;9.73;5.20;;;;;;;16.71;62.28;98282.56;10631644;27;20100;-54
2021/04/01 10:09:15;;;;;;;10.73;5.75;;;;;;;16.98;61.40;98276.25;10628782;27;20047;-54
2021/04/01 10:14:17;;;;;;;8.80;5.75;;;;;;;16.61;60.89;98279.50;10628844;27;20043;-53
2021/04/01 10:19:22;;;;;;;10.65;5.40;;;;;;;16.86;61.58;98280.53;10629286;27;20047;-54
2021/04/01 10:24:27;;;;;;;14.05;5.63;;;;;;;16.96;60.43;98278.31;10627664;27;20055;-54
2021/04/01 10:29:40;;;;;;;8.65;5.32;;;;;;;16.67;60.23;98278.69;10626219;27;20050;-54
2021/04/01 10:34:44;;;;;;;;;;;;;;;16.21;60.90;98275.00;10630238;27;20043;-51
2021/04/01 10:39:46;;;;;;;8.77;5.20;;;;;;;15.85;61.61;98273.47;10642047;27;19933;-53
2021/04/01 10:44:59;;;;;;;7.10;3.95;;;;;;;15.95;60.03;98274.91;10627367;27;20043;-54
2021/04/01 10:50:00;;;;;;;6.75;2.85;;;;;;;15.88;60.12;98264.31;10628086;27;20392;-54
2021/04/01 10:55:03;;;;;;;5.95;3.20;;;;;;;15.49;59.42;98255.19;10626481;27;20136;-53
2021/04/01 11:00:12;;;;;;;6.93;3.15;;;;;;;15.41;59.97;98255.34;10629456;27;20055;-52
2021/04/01 11:05:16;;;;;;;8.00;3.80;;;;;;;15.31;59.84;98252.25;10625938;27;20067;-54
2021/04/01 11:10:23;;;;;;;6.38;3.28;;;;;;;15.49;60.17;98255.19;10627090;27;20107;-57
2021/04/01 11:15:27;;;;;;;10.27;3.42;;;;;;;15.58;59.50;98261.13;10627994;27;20039;-55
2021/04/01 11:20:33;;;;;;;10.85;5.55;;;;;;;15.48;59.62;98252.72;10625840;27;20070;-52
2021/04/01 11:25:36;;;;;;;11.45;5.95;;;;;;;14.97;60.14;98243.31;10631671;27;20495;-52
2021/04/01 11:30:47;;;;;;;12.10;7.00;;;;;;;14.45;60.66;98242.72;10625861;27;20054;-55
2021/04/01 11:35:57;;;;;;;11.27;6.43;;;;;;;14.27;61.11;98235.25;10624758;27;20075;-53
2021/04/01 11:41:01;;;;;;;11.63;6.75;;;;;;;14.15;61.21;98226.19;10622817;27;20039;-53
2021/04/01 11:46:18;;;;;;;14.65;7.65;;;;;;;14.00;61.66;98228.06;10624568;27;20436;-54
2021/04/01 11:51:22;;;;;;;13.93;8.25;;;;;;;13.99;61.74;98226.44;10624651;27;20178;-54
2021/04/01 11:56:33;;;;;;;13.27;7.57;;;;;;;13.86;61.68;98221.03;10624215;27;20111;-53
2021/04/01 12:01:38;;;;;;;15.35;7.85;;;;;;;13.72;61.52;98214.78;10624177;27;20046;-52
2021/04/01 12:06:39;;;;;;;15.88;9.77;;;;;;;13.53;61.88;98210.94;10624276;27;20055;-54
2021/04/01 12:11:42;;;;;;;17.13;8.38;;;;;;;13.48;61.93;98202.75;10623794;28;20087;-53
2021/04/01 12:16:45;;;;;;;14.48;9.05;;;;;;;13.42;61.87;98200.84;10624870;28;20070;-53
2021/04/01 12:21:46;;;;;;;13.80;7.70;;;;;;;13.33;62.13;98203.63;10624748;27;20035;-54
2021/04/01 12:26:49;;;;;;;16.35;9.30;;;;;;;13.18;62.40;98200.16;10622120;28;20071;-53
2021/04/01 12:31:55;;;;;;;15.80;9.03;;;;;;;13.29;62.18;98194.41;10605041;28;20471;-53
2021/04/01 12:36:59;;;;;;;17.23;8.95;;;;;;;13.22;62.09;98192.66;10624153;28;20475;-54
2021/04/01 12:42:00;;;;;;;16.48;9.45;;;;;;;13.08;62.03;98195.16;10623981;28;20043;-54
2021/04/01 12:47:04;;;;;;;21.30;10.80;;;;;;;12.59;62.75;98197.50;10628709;28;20069;-57
2021/04/01 12:52:07;;;;;;;19.88;10.55;;;;;;;12.52;63.52;98191.31;10629963;27;20446;-54
2021/04/01 12:57:11;;;;;;;15.70;9.88;;;;;;;12.66;63.28;98183.41;10635187;27;20391;-54
2021/04/01 13:02:15;;;;;;;17.25;9.38;;;;;;;12.60;63.34;98178.88;10631168;27;20047;-54
2021/04/01 13:07:23;;;;;;;17.10;9.82;;;;;;;12.62;63.22;98183.94;10635806;27;20053;-53
2021/04/01 13:12:25;;;;;;;19.90;10.05;;;;;;;12.52;63.48;98183.41;10634170;27;20039;-56
2021/04/01 13:17:27;;;;;;;18.77;10.20;;;;;;;12.42;63.41;98181.03;10641580;27;20099;-52
2021/04/01 13:22:32;;;;;;;21.83;11.23;;;;;;;12.23;63.94;98176.28;10634611;27;20479;-53
2021/04/01 13:27:34;;;;;;;21.35;10.50;;;;;;;12.14;64.23;98172.91;10629579;27;20055;-53
2021/04/01 13:32:43;;;;;;;21.15;12.25;;;;;;;12.09;64.00;98164.69;10630506;27;20035;-53
2021/04/01 13:37:47;;;;;;;19.95;11.40;;;;;;;12.14;64.23;98170.25;10630161;27;20051;-55
2021/04/01 13:42:52;;;;;;;20.52;11.38;;;;;;;12.15;63.86;98158.72;10629162;27;20057;-53
2021/04/01 13:47:59;;;;;;;21.63;11.73;;;;;;;12.00;64.22;98155.22;10628451;27;20145;-53
2021/04/01 13:53:10;;;;;;;20.20;11.68;;;;;;;11.94;64.46;98159.38;10628957;27;20051;-56
2021/04/01 13:58:57;;;;;;;20.80;11.63;;;;;;;11.86;64.74;98160.28;10629096;27;20043;-54
2021/04/01 14:04:03;;;;;;;20.50;11.55;;;;;;;11.97;64.53;98162.47;10628010;27;20042;-54
2021/04/01 14:09:13;;;;;;;22.25;12.07;;;;;;;11.96;64.45;98155.56;10627623;27;20047;-55
2021/04/01 14:14:15;;;;;;;21.80;11.68;;;;;;;11.91;64.62;98152.66;10629248;27;20390;-53
2021/04/01 14:19:20;;;;;;;21.13;11.45;;;;;;;11.91;64.44;98152.66;10627598;27;20062;-53
2021/04/01 14:24:24;;;;;;;22.45;13.07;;;;;;;11.96;64.41;98162.66;10629025;27;20170;-54
2021/04/01 14:29:26;;;;;;;23.60;12.57;;;;;;;12.02;64.43;98167.22;10626592;27;20055;-53
2021/04/01 14:34:29;;;;;;;22.25;11.40;;;;;;;12.08;64.08;98155.16;10626606;27;20043;-54
2021/04/01 14:39:32;;;;;;;19.70;11.75;;;;;;;12.03;64.44;98157.50;10627425;27;20055;-54
2021/04/01 14:44:34;;;;;;;21.17;11.32;;;;;;;12.08;64.30;98152.53;10626371;27;20077;-57
2021/04/01 14:49:37;;;;;;;23.03;12.43;;;;;;;12.20;64.05;98153.75;10626487;27;20111;-54
2021/04/01 14:54:40;;;;;;;20.90;11.23;;;;;;;12.23;63.67;98157.84;10626177;27;20106;-56
2021/04/01 14:59:45;;;;;;;18.13;11.82;;;;;;;12.21;63.84;98164.09;10633043;27;20134;-53
2021/04/01 15:04:48;;;;;;;19.60;10.63;;;;;;;12.13;63.98;98165.97;10631361;27;20043;-54
2021/04/01 15:09:50;;;;;;;19.83;9.82;;;;;;;12.09;64.14;98164.69;10626901;27;20061;-55
2021/04/01 15:14:52;;;;;;;14.65;8.35;;;;;;;12.05;64.21;98158.97;10626395;27;20072;-55
2021/04/01 15:19:55;;;;;;;14.43;8.82;;;;;;;11.97;64.38;98159.84;10625347;27;20043;-56
2021/04/01 15:24:56;;;;;;;13.40;8.20;;;;;;;11.97;64.41;98167.75;10624371;27;20051;-55
2021/04/01 15:29:59;;;;;;;13.77;7.65;;;;;;;11.97;64.39;98167.75;10623881;27;20289;-54
2021/04/01 15:35:02;;;;;;;12.32;7.70;;;;;;;11.97;64.35;98166.94;10619624;27;20039;-53
2021/04/01 15:40:05;;;;;;;13.57;7.25;;;;;;;12.00;64.46;98166.56;10581629;28;20051;-54
2021/04/01 15:45:09;;;;;;;13.55;7.57;;;;;;;12.03;64.15;98171.50;10581311;28;20055;-55
2021/04/01 15:50:13;;;;;;;11.85;6.80;;;;;;;12.03;64.25;98179.38;10583438;28;20052;-53
2021/04/01 15:55:15;;;;;;;14.07;6.32;;;;;;;11.95;64.21;98180.28;10580856;28;20093;-53
2021/04/01 16:00:18;;;;;;;10.80;5.93;;;;;;;11.86;64.28;98191.88;10579772;28;20090;-53
2021/04/01 16:05:21;;;;;;;10.38;5.20;;;;;;;11.84;64.44;98188.56;10580948;28;20502;-53
2021/04/01 16:10:22;;;;;;;12.50;6.47;;;;;;;11.87;64.20;98180.34;10581874;28;20054;-53
2021/04/01 16:15:24;;;;;;;8.75;5.20;;;;;;;11.80;64.46;98173.31;10580205;28;20120;-54
2021/04/01 16:20:27;;;;;;;9.77;5.70;;;;;;;11.70;64.97;98192.78;10581146;28;20051;-53
2021/04/01 16:25:28;;;;;;;6.32;3.22;;;;;;;11.63;64.93;98189.19;10581254;28;20056;-53
2021/04/01 16:30:31;;;;;;;5.40;2.63;;;;;;;11.22;64.82;98199.94;10585066;28;20052;-54
2021/04/01 16:35:35;;;;;;;6.25;1.85;;;;;;;10.81;64.38;98200.09;10589648;27;20052;-52
2021/04/01 16:40:36;;;;;;;;;;;;;;;10.46;64.46;98227.59;10593120;28;20082;-54
2021/04/01 16:45:38;;;;;;;4.30;1.67;;;;;;;10.12;63.72;98233.81;10593076;28;19932;-54
2021/04/01 16:50:41;;;;;;;5.30;2.05;;;;;;;10.00;63.96;98250.03;10591337;28;20100;-54
2021/04/01 16:55:48;;;;;;;6.25;2.08;;;;;;;9.88;64.12;98258.25;10599194;27;20487;-53
2021/04/01 17:00:51;;;;;;;4.93;1.92;;;;;;;9.91;64.19;98267.59;10592931;27;20460;-54
2021/04/01 17:05:54;;;;;;;5.50;1.50;;;;;;;9.69;63.02;98277.69;10590334;28;20059;-54
2021/04/01 17:10:56;;;;;;;3.70;1.25;;;;;;;9.50;63.06;98266.66;10592596;28;20062;-56
2021/04/01 17:15:57;;;;;;;3.00;1.00;;;;;;;9.49;63.46;98268.47;10591363;28;20096;-53
2021/04/01 17:21:01;;;;;;;5.95;1.40;;;;;;;9.54;63.27;98257.50;10617089;27;20067;-55
2021/04/01 17:26:03;;;;;;;4.78;1.30;;;;;;;9.48;62.64;98266.81;10653740;27;20082;-53
2021/04/01 17:31:05;;;;;;;5.53;1.25;;;;;;;9.26;62.61;98270.84;10635683;27;20524;-53
2021/04/01 17:36:08;;;;;;;3.92;1.05;;;;;;;9.18;62.62;98255.91;10636785;27;20528;-58
2021/04/01 17:41:10;;;;;;;4.72;1.40;;;;;;;9.11;62.16;98259.28;10633009;27;20043;-53
2021/04/01 17:46:11;;;;;;;5.63;1.67;;;;;;;9.13;62.67;98268.66;10631343;27;20361;-52
2021/04/01 17:51:14;;;;;;;6.55;1.90;;;;;;;9.13;62.22;98273.88;10632087;27;20055;-54
2021/04/01 17:56:15;;;;;;;6.68;2.05;;;;;;;9.08;62.25;98281.41;10631953;27;20053;-53
2021/04/01 18:01:22;;;;;;;4.90;1.98;;;;;;;9.07;62.11;98261.41;10630470;27;20065;-53
2021/04/01 18:22:39;;;;;;;5.05;2.25;;;;;;;8.68;61.74;98274.09;10630255;27;20043;-53
2021/04/01 18:27:48;;;;;;;5.15;2.55;;;;;;;8.67;61.83;98275.09;10629720;27;20051;-53
2021/04/01 18:32:56;;;;;;;5.90;2.13;;;;;;;8.59;61.24;98275.03;10628760;27;20039;-53
2021/04/01 18:38:02;;;;;;;5.63;2.05;;;;;;;8.50;61.49;98275.00;10630284;27;20043;-54
2021/04/01 18:43:04;;;;;;;4.97;1.80;;;;;;;8.68;60.97;98268.88;10628109;27;20043;-54
2021/04/01 18:48:11;;;;;;;4.47;1.98;;;;;;;8.68;61.24;98253.16;10629547;27;20055;-53
2021/04/01 18:53:16;;;;;;;7.78;2.30;;;;;;;8.76;60.51;98251.41;10628649;27;20095;-54
2021/04/01 18:58:21;;;;;;;8.18;1.98;;;;;;;8.64;60.74;98244.78;10627893;27;20114;-54
2021/04/01 19:03:24;;;;;;;7.32;2.58;;;;;;;8.57;61.09;98246.38;10630353;27;20107;-53
2021/04/01 19:08:36;;;;;;;9.02;2.40;;;;;;;8.69;60.71;98247.78;10630701;27;20368;-53
2021/04/01 19:24:17;;;;;;;8.13;3.60;;;;;;;8.81;60.55;98268.50;10631040;27;20479;-54
2021/04/01 19:29:18;;;;;;;10.17;2.90;;;;;;;8.83;60.52;98277.81;10627305;27;20054;-54
2021/04/01 19:34:20;;;;;;;6.90;2.92;;;;;;;8.76;60.88;98264.50;10626554;27;20051;-54
2021/04/01 19:39:23;;;;;;;6.93;2.90;;;;;;;8.67;60.83;98254.13;10627335;27;20059;-53
2021/04/01 19:44:25;;;;;;;8.05;3.13;;;;;;;8.61;61.52;98263.44;10625558;27;20035;-55
2021/04/01 19:49:29;;;;;;;7.72;3.60;;;;;;;8.49;61.89;98260.22;10626765;27;20046;-55
2021/04/01 19:54:33;;;;;;;8.32;4.18;;;;;;;8.60;61.27;98264.41;10625367;27;20421;-52
2021/04/01 19:59:35;;;;;;;6.13;3.30;;;;;;;8.68;61.34;98253.16;10623668;27;20058;-60
2021/04/01 20:04:37;;;;;;;7.28;3.30;;;;;;;8.70;61.09;98252.03;10592197;28;20040;-53
2021/04/01 20:09:39;;;;;;;9.20;4.28;;;;;;;8.67;61.67;98241.03;10586883;28;20055;-55
2021/04/01 20:14:41;;;;;;;8.73;4.65;;;;;;;8.59;61.44;98244.44;10583942;28;20048;-58
2021/04/01 20:19:43;;;;;;;7.57;4.13;;;;;;;8.60;61.91;98259.19;10583095;28;20613;-57
2021/04/01 20:24:46;;;;;;;14.18;4.95;;;;;;;8.56;61.81;98263.09;10583066;28;20052;-53
2021/04/01 20:29:51;;;;;;;9.18;5.70;;;;;;;8.50;62.06;98268.94;10582462;28;20051;-54
2021/04/01 20:34:53;;;;;;;8.43;4.93;;;;;;;8.53;61.74;98256.34;10583617;28;20437;-54
2021/04/01 20:39:55;;;;;;;9.18;5.20;;;;;;;8.37;61.65;98250.94;10582879;28;20484;-55
2021/04/01 20:44:57;;;;;;;8.70;4.75;;;;;;;8.18;62.11;98249.31;10582483;28;20499;-54
2021/04/01 20:49:58;;;;;;;8.35;5.30;;;;;;;8.04;61.94;98242.03;10584676;28;20445;-53
2021/04/01 20:55:01;;;;;;;8.40;5.22;;;;;;;7.99;62.16;98236.41;10585804;28;20476;-54
2021/04/01 21:00:10;;;;;;;9.50;4.95;;;;;;;7.95;62.02;98229.84;10583335;28;20147;-55
2021/04/01 21:05:13;;;;;;;9.27;4.65;;;;;;;7.91;62.33;98228.47;10583015;28;20468;-53
2021/04/01 21:10:18;;;;;;;10.20;5.05;;;;;;;7.90;62.40;98232.06;10582168;28;20074;-55
2021/04/01 21:15:23;;;;;;;7.82;4.75;;;;;;;7.90;62.43;98238.13;10585210;28;20040;-53
2021/04/01 21:20:24;;;;;;;10.00;5.05;;;;;;;7.89;62.25;98233.06;10591827;28;20134;-53
2021/04/01 21:25:31;;;;;;;9.45;4.43;;;;;;;7.86;62.66;98230.72;10590594;28;20055;-53
2021/04/01 21:30:36;;;;;;;8.52;4.70;;;;;;;7.79;62.92;98223.47;10623008;27;20058;-53
2021/04/01 21:35:38;;;;;;;6.82;3.90;;;;;;;7.75;62.40;98242.22;10631601;27;20043;-55
2021/04/01 21:40:42;;;;;;;6.88;3.35;;;;;;;7.65;62.96;98233.63;10631936;27;20095;-53
2021/04/01 21:45:45;;;;;;;6.45;3.00;;;;;;;7.52;63.19;98226.16;10632098;27;20051;-54
2021/04/01 21:50:49;;;;;;;4.93;2.35;;;;;;;7.53;63.08;98226.00;10631496;27;20107;-53
2021/04/01 21:55:52;;;;;;;6.00;2.22;;;;;;;7.54;62.91;98237.25;10633607;27;20050;-53
2021/04/01 22:00:55;;;;;;;6.07;2.53;;;;;;;7.43;62.45;98230.47;10633324;27;20055;-52
2021/04/01 22:05:57;;;;;;;5.43;1.70;;;;;;;7.28;62.78;98235.34;10626073;27;20316;-55
2021/04/01 22:11:02;;;;;;;3.97;1.83;;;;;;;7.26;62.53;98220.78;10630656;27;20093;-53
2021/04/01 22:16:05;;;;;;;4.38;1.67;;;;;;;7.01;62.48;98196.16;10631825;27;20043;-54
2021/04/01 22:21:07;;;;;;;6.80;3.53;;;;;;;6.71;62.60;98195.44;10631663;27;20043;-53
2021/04/01 22:26:12;;;;;;;4.88;2.33;;;;;;;6.58;63.25;98193.16;10629056;27;20055;-55
2021/04/01 22:31:14;;;;;;;6.70;3.47;;;;;;;6.59;63.02;98197.44;10634090;27;20039;-53
2021/04/01 22:36:15;;;;;;;6.18;2.85;;;;;;;6.65;63.11;98190.78;10630504;27;20042;-53
2021/04/01 22:41:20;;;;;;;7.55;4.30;;;;;;;6.65;63.10;98198.63;10629184;27;20089;-53
2021/04/01 22:46:22;;;;;;;6.93;3.50;;;;;;;6.67;63.47;98205.34;10628720;27;20047;-53
2021/04/01 22:51:24;;;;;;;6.65;3.13;;;;;;;6.58;63.81;98200.16;10630478;27;20501;-55
2021/04/01 22:56:27;;;;;;;5.00;2.70;;;;;;;6.42;63.99;98198.16;10628781;27;20043;-55
2021/04/01 23:01:28;;;;;;;4.97;2.05;;;;;;;6.22;63.80;98186.94;10628230;27;20088;-53
2021/04/01 23:06:30;;;;;;;4.78;2.08;;;;;;;6.12;64.28;98181.72;10628343;27;20054;-54
2021/04/01 23:11:33;;;;;;;6.18;1.88;;;;;;;6.18;64.07;98175.13;10628543;27;20077;-53
2021/04/01 23:16:34;;;;;;;4.78;1.90;;;;;;;6.16;63.40;98158.81;10628358;27;20043;-52
2021/04/01 23:21:36;;;;;;;4.63;1.70;;;;;;;6.20;63.47;98157.56;10627949;27;20058;-52
2021/04/01 23:26:38;;;;;;;3.03;1.23;;;;;;;6.20;63.63;98158.38;10627777;27;20368;-55
2021/04/01 23:31:40;;;;;;;3.78;1.40;;;;;;;6.23;63.34;98147.66;10627574;27;20399;-58
2021/04/01 23:36:41;;;;;;;4.63;1.80;;;;;;;6.25;63.46;98154.50;10628175;27;20073;-53
2021/04/01 23:41:44;;;;;;;8.40;1.55;;;;;;;6.19;63.53;98153.31;10627407;27;20050;-60
2021/04/01 23:46:46;;;;;;;4.20;1.50;;;;;;;6.18;63.40;98146.44;10627087;27;20114;-55
2021/04/01 23:51:47;;;;;;;6.38;2.28;;;;;;;6.18;63.30;98128.16;10628442;27;20051;-54
2021/04/01 23:56:50;;;;;;;5.78;2.05;;;;;;;6.14;63.52;98132.03;10628870;27;20042;-55
